Time;durP1;ratioP1;P1;durP2;ratioP2;P2;SDS_P1;SDS_P2;PMS_P1;PMS_P2;Temp;Humidity;BMP_temperature;BMP_pressure;BME280_temperature;BME280_humidity;BME280_pressure;Samples;Min_cycle;Max_cycle;Signal;HPM_P1;HPM_P2
2021/05/31 00:01:47;;;;;;;10.02;3.88;;;12.70;99.90;;;;;;5014912;28;20032;-71
2021/05/31 00:04:13;;;;;;;7.97;3.72;;;12.70;99.90;;;;;;5014698;28;20084;-72
2021/05/31 00:07:02;;;;;;;13.18;3.97;;;12.70;99.90;;;;;;5015052;28;20113;-73
2021/05/31 00:09:29;;;;;;;5.05;3.40;;;12.70;99.90;;;;;;5013559;28;20030;-74
2021/05/31 00:11:54;;;;;;;9.02;3.70;;;12.70;99.90;;;;;;5013641;28;20022;-73
2021/05/31 00:14:20;;;;;;;9.23;3.92;;;12.60;99.90;;;;;;5014283;28;20037;-73
2021/05/31 00:16:45;;;;;;;11.30;3.97;;;12.60;99.90;;;;;;5013236;28;20030;-73
2021/05/31 00:19:12;;;;;;;8.15;3.53;;;12.50;99.90;;;;;;5013289;28;20064;-76
2021/05/31 00:21:38;;;;;;;8.77;3.47;;;12.70;99.90;;;;;;5013398;28;20557;-74
2021/05/31 00:24:04;;;;;;;10.60;3.83;;;12.50;99.90;;;;;;5029468;28;20133;-73
2021/05/31 00:26:30;;;;;;;8.20;3.58;;;12.40;99.90;;;;;;5033312;28;20394;-73
2021/05/31 00:28:55;;;;;;;7.35;3.20;;;12.30;99.90;;;;;;5033028;28;20438;-73
2021/05/31 00:31:21;;;;;;;8.85;3.38;;;12.30;99.90;;;;;;5034178;28;20037;-73
2021/05/31 00:33:46;;;;;;;7.70;3.78;;;12.20;99.90;;;;;;5034083;28;20073;-73
2021/05/31 00:36:12;;;;;;;7.18;3.55;;;12.10;99.90;;;;;;5033877;28;20079;-71
2021/05/31 00:38:40;;;;;;;7.40;3.72;;;12.10;99.90;;;;;;5029379;23;20115;-74
2021/05/31 00:41:06;;;;;;;7.18;4.43;;;12.10;99.90;;;;;;5016159;28;20100;-74
2021/05/31 00:43:34;;;;;;;10.10;4.20;;;12.10;99.90;;;;;;5016134;28;20428;-74
2021/05/31 00:46:06;;;;;;;8.95;3.53;;;12.00;99.90;;;;;;5033693;28;20032;-74
2021/05/31 00:48:31;;;;;;;9.30;3.85;;;12.00;99.90;;;;;;5016061;28;20030;-74
2021/05/31 00:50:59;;;;;;;18.95;5.47;;;12.00;99.90;;;;;;5016004;28;20080;-74
2021/05/31 00:53:28;;;;;;;7.50;3.67;;;12.00;99.90;;;;;;5033397;28;20044;-74
2021/05/31 00:55:53;;;;;;;10.48;4.80;;;11.90;99.90;;;;;;5033685;28;20029;-74
2021/05/31 00:58:20;;;;;;;10.18;4.00;;;11.90;99.90;;;;;;5033631;28;20474;-74
2021/05/31 01:00:45;;;;;;;8.82;4.53;;;11.90;99.90;;;;;;5033781;28;20017;-75
2021/05/31 01:03:11;;;;;;;9.95;4.35;;;11.90;99.90;;;;;;5033245;28;20013;-76
2021/05/31 01:05:37;;;;;;;8.38;4.53;;;11.90;99.90;;;;;;5033331;28;20112;-75
2021/05/31 01:08:08;;;;;;;15.75;4.63;;;11.90;99.90;;;;;;5033624;28;20479;-76
2021/05/31 01:10:51;;;;;;;8.98;4.05;;;11.80;99.90;;;;;;5015573;28;20056;-75
2021/05/31 01:13:58;;;;;;;8.65;4.00;;;11.80;99.90;;;;;;5015603;28;20021;-74
2021/05/31 01:16:33;;;;;;;12.85;5.63;;;11.80;99.90;;;;;;4986771;28;20384;-73
2021/05/31 01:19:03;;;;;;;12.77;4.85;;;11.70;99.90;;;;;;5033694;28;20026;-74
2021/05/31 01:22:02;;;;;;;12.57;5.30;;;11.60;99.90;;;;;;5027398;28;20033;-74
2021/05/31 01:24:54;;;;;;;;;;;11.50;99.90;;;;;;5031491;28;20048;-74
2021/05/31 01:27:19;;;;;;;8.40;4.28;;;11.50;99.90;;;;;;5030279;28;19916;-74
2021/05/31 01:29:53;;;;;;;11.77;4.93;;;11.40;99.90;;;;;;5033483;28;20025;-74
2021/05/31 01:32:28;;;;;;;10.45;4.70;;;11.30;99.90;;;;;;5033252;28;20025;-72
2021/05/31 01:34:53;;;;;;;8.43;4.68;;;11.20;99.90;;;;;;5033052;28;20117;-73
2021/05/31 01:37:25;;;;;;;12.18;5.45;;;11.20;99.90;;;;;;5032701;28;20116;-74
2021/05/31 01:39:55;;;;;;;13.07;4.88;;;11.20;99.90;;;;;;5033016;28;20581;-74
2021/05/31 01:42:24;;;;;;;10.27;4.85;;;11.10;99.90;;;;;;5015624;28;20053;-73
2021/05/31 01:44:49;;;;;;;;;;;11.10;99.90;;;;;;5016092;28;20029;-72
2021/05/31 01:47:15;;;;;;;14.77;4.85;;;11.10;99.90;;;;;;5015483;28;19905;-73
2021/05/31 01:49:43;;;;;;;12.20;4.72;;;11.10;99.90;;;;;;5015524;28;20048;-73
2021/05/31 01:52:10;;;;;;;12.30;4.72;;;11.00;99.90;;;;;;5015401;28;20022;-72
2021/05/31 01:54:36;;;;;;;13.75;5.15;;;11.10;99.90;;;;;;5032953;28;20025;-74
2021/05/31 01:57:03;;;;;;;11.88;5.25;;;11.10;99.90;;;;;;5028222;23;20642;-73
2021/05/31 01:59:32;;;;;;;11.18;4.90;;;11.10;99.90;;;;;;5033170;28;20108;-71
2021/05/31 02:01:57;;;;;;;11.20;4.65;;;11.10;99.90;;;;;;5032885;28;20109;-73
2021/05/31 02:04:23;;;;;;;16.27;5.97;;;11.10;99.90;;;;;;5033387;28;20048;-72
2021/05/31 02:06:51;;;;;;;16.55;5.28;;;11.10;99.90;;;;;;5034954;28;20033;-71
2021/05/31 02:09:17;;;;;;;12.27;5.80;;;11.10;99.90;;;;;;5051806;28;20021;-73
2021/05/31 02:12:06;;;;;;;13.63;5.60;;;11.10;99.90;;;;;;5033192;28;20091;-73
2021/05/31 02:14:32;;;;;;;8.90;5.20;;;11.10;99.90;;;;;;5033052;28;20032;-71
2021/05/31 02:17:14;;;;;;;12.38;5.50;;;11.10;99.90;;;;;;5033255;28;20033;-71
2021/05/31 02:19:41;;;;;;;13.05;4.90;;;11.10;99.90;;;;;;5015330;28;20025;-73
2021/05/31 02:22:09;;;;;;;15.70;5.40;;;11.10;99.90;;;;;;5015371;28;20018;-71
2021/05/31 02:24:40;;;;;;;12.23;5.57;;;11.10;99.90;;;;;;5032962;28;20026;-74
2021/05/31 02:27:05;;;;;;;15.23;6.97;;;11.10;99.90;;;;;;5016286;28;20028;-74
2021/05/31 02:29:31;;;;;;;14.20;5.85;;;11.00;99.90;;;;;;5032634;28;20029;-74
2021/05/31 02:31:57;;;;;;;14.18;5.25;;;11.00;99.90;;;;;;5032704;28;20026;-73
2021/05/31 02:34:23;;;;;;;20.17;6.32;;;11.00;99.90;;;;;;5015368;28;20493;-74
2021/05/31 02:36:49;;;;;;;14.50;5.65;;;11.00;99.90;;;;;;5032836;28;20040;-74
2021/05/31 02:39:18;;;;;;;17.13;6.35;;;11.00;99.90;;;;;;5018608;28;20542;-74
2021/05/31 02:41:46;;;;;;;13.68;6.22;;;11.00;99.90;;;;;;5018588;28;20013;-74
2021/05/31 02:44:11;;;;;;;12.52;5.75;;;10.90;99.90;;;;;;5037319;28;20460;-73
2021/05/31 02:46:37;;;;;;;11.82;5.45;;;11.00;99.90;;;;;;5036166;28;20108;-73
2021/05/31 02:49:03;;;;;;;14.38;5.55;;;10.90;99.90;;;;;;5036044;28;20017;-73
2021/05/31 02:51:29;;;;;;;17.83;6.57;;;10.90;99.90;;;;;;5018235;28;20402;-74
2021/05/31 02:53:54;;;;;;;15.02;6.63;;;10.90;99.90;;;;;;5018229;28;20026;-74
2021/05/31 02:56:20;;;;;;;15.73;6.22;;;10.80;99.90;;;;;;5035908;28;20031;-74
2021/05/31 02:58:46;;;;;;;16.30;5.85;;;10.80;99.90;;;;;;5038393;28;20021;-74
2021/05/31 03:01:11;;;;;;;15.35;7.25;;;10.70;99.90;;;;;;5056196;28;20021;-73
2021/05/31 03:03:37;;;;;;;20.33;6.68;;;10.70;99.90;;;;;;5038052;28;20509;-73
2021/05/31 03:06:02;;;;;;;11.23;6.05;;;10.70;99.90;;;;;;5055979;28;20474;-73
2021/05/31 03:08:28;;;;;;;12.00;5.80;;;10.70;99.90;;;;;;5055599;28;20086;-73
2021/05/31 03:10:54;;;;;;;14.63;7.55;;;10.60;99.90;;;;;;5055443;28;20044;-72
2021/05/31 03:13:20;;;;;;;12.07;5.70;;;10.60;99.90;;;;;;5055450;28;20021;-74
2021/05/31 03:15:47;;;;;;;18.63;6.80;;;10.50;99.90;;;;;;5054103;28;20100;-75
2021/05/31 03:18:13;;;;;;;13.90;5.47;;;10.50;99.90;;;;;;5055879;28;20064;-75
2021/05/31 03:20:38;;;;;;;14.70;6.10;;;10.50;99.90;;;;;;5055917;28;20025;-73
2021/05/31 03:23:04;;;;;;;12.85;6.20;;;10.50;99.90;;;;;;5055521;28;20470;-73
2021/05/31 03:25:30;;;;;;;14.57;6.53;;;10.40;99.90;;;;;;5037453;28;20059;-73
2021/05/31 03:27:58;;;;;;;15.27;7.00;;;10.50;99.90;;;;;;5055431;28;20021;-74
2021/05/31 03:30:23;;;;;;;15.50;6.90;;;10.50;99.90;;;;;;5037293;28;20063;-73
2021/05/31 03:32:49;;;;;;;15.18;7.50;;;10.40;99.90;;;;;;5023536;28;20090;-73
2021/05/31 03:35:16;;;;;;;18.10;7.40;;;10.50;99.90;;;;;;5035355;28;20022;-74
2021/05/31 03:37:42;;;;;;;18.17;8.27;;;10.50;99.90;;;;;;5036386;28;20029;-73
2021/05/31 03:40:09;;;;;;;22.23;6.82;;;10.40;99.90;;;;;;5017317;28;20032;-73
2021/05/31 03:42:35;;;;;;;19.08;7.38;;;10.40;99.90;;;;;;5035151;28;20025;-75
2021/05/31 03:45:00;;;;;;;17.10;7.65;;;10.40;99.90;;;;;;5035027;28;20025;-74
2021/05/31 03:47:26;;;;;;;20.58;7.85;;;10.50;99.90;;;;;;5018038;28;20032;-75
2021/05/31 03:49:52;;;;;;;19.50;7.65;;;10.50;99.90;;;;;;5034139;28;20024;-74
2021/05/31 03:52:17;;;;;;;19.25;7.35;;;10.50;99.90;;;;;;5049324;28;20025;-74
2021/05/31 03:54:43;;;;;;;16.58;7.47;;;10.50;99.90;;;;;;5018265;28;20034;-74
2021/05/31 03:57:08;;;;;;;13.93;7.82;;;10.50;99.90;;;;;;5034735;28;20094;-75
2021/05/31 03:59:34;;;;;;;16.10;7.40;;;10.50;99.90;;;;;;5034864;28;20017;-74
2021/05/31 04:02:01;;;;;;;15.85;7.35;;;10.50;99.90;;;;;;5017317;28;20489;-74
2021/05/31 04:11:33;;;;;;;19.23;7.90;;;10.50;99.90;;;;;;5058129;28;20049;-74
2021/05/31 04:12:25;;;;;;;15.68;6.97;;;10.60;99.90;;;;;;5055324;28;20032;-73
2021/05/31 04:14:51;;;;;;;16.85;7.88;;;10.70;99.90;;;;;;5050678;28;20017;-74
2021/05/31 04:17:16;;;;;;;17.90;7.25;;;10.70;99.90;;;;;;5017309;28;20129;-74
2021/05/31 04:19:42;;;;;;;20.88;8.00;;;10.80;99.90;;;;;;5034943;28;20018;-74
2021/05/31 04:22:07;;;;;;;16.35;7.63;;;10.80;99.90;;;;;;5034919;28;20546;-75
2021/05/31 04:24:33;;;;;;;13.80;7.00;;;10.80;99.90;;;;;;5054074;28;20053;-74
2021/05/31 04:26:58;;;;;;;20.80;8.25;;;10.90;99.90;;;;;;5054081;28;20039;-72
2021/05/31 04:29:24;;;;;;;14.50;7.00;;;11.00;99.90;;;;;;5036286;28;20063;-74
2021/05/31 04:31:49;;;;;;;14.45;7.53;;;11.00;99.90;;;;;;5053988;28;20036;-74
2021/05/31 04:34:15;;;;;;;22.85;8.02;;;11.10;99.90;;;;;;5036109;28;20090;-73
2021/05/31 04:36:42;;;;;;;16.55;7.50;;;11.10;99.90;;;;;;5054990;28;20033;-73
2021/05/31 04:39:09;;;;;;;17.48;8.45;;;11.20;99.90;;;;;;5052559;28;20116;-73
2021/05/31 04:41:36;;;;;;;15.63;8.10;;;11.20;99.90;;;;;;5054158;28;20021;-73
2021/05/31 04:44:01;;;;;;;18.58;7.88;;;11.30;99.90;;;;;;5053996;28;20020;-73
2021/05/31 04:46:27;;;;;;;17.52;8.00;;;11.30;99.90;;;;;;5035851;28;20394;-73
2021/05/31 04:48:54;;;;;;;17.45;8.52;;;11.40;99.90;;;;;;5035789;28;20095;-74
2021/05/31 04:51:20;;;;;;;17.15;7.82;;;11.50;99.90;;;;;;5054110;28;20129;-74
2021/05/31 04:53:45;;;;;;;16.83;8.48;;;11.50;99.90;;;;;;5054175;28;20478;-74
2021/05/31 04:56:13;;;;;;;17.45;8.40;;;11.60;99.90;;;;;;5051663;28;20040;-73
2021/05/31 04:58:39;;;;;;;15.73;7.65;;;11.70;99.90;;;;;;5053443;28;20056;-73
2021/05/31 05:01:05;;;;;;;15.90;7.43;;;11.80;99.90;;;;;;5053494;28;20424;-73
2021/05/31 05:03:30;;;;;;;17.25;7.82;;;11.80;99.90;;;;;;5035665;28;20025;-73
2021/05/31 05:05:56;;;;;;;15.75;7.55;;;11.90;99.90;;;;;;5053380;28;20079;-75
2021/05/31 05:08:21;;;;;;;16.05;7.30;;;12.00;99.90;;;;;;5053284;28;20025;-75
2021/05/31 05:10:47;;;;;;;17.65;7.93;;;12.00;99.90;;;;;;5033805;28;20025;-74
2021/05/31 05:13:13;;;;;;;18.92;7.90;;;12.10;99.90;;;;;;5033791;28;20014;-75
2021/05/31 05:15:39;;;;;;;16.63;7.88;;;12.20;99.90;;;;;;5015630;28;20029;-75
2021/05/31 05:18:05;;;;;;;15.50;7.07;;;12.30;99.90;;;;;;5015915;28;20557;-75
2021/05/31 05:20:32;;;;;;;22.90;8.57;;;12.40;99.90;;;;;;5033481;28;20393;-75
2021/05/31 05:22:59;;;;;;;14.18;7.95;;;12.40;99.90;;;;;;5039105;28;20558;-75
2021/05/31 05:25:25;;;;;;;18.45;7.55;;;12.40;99.90;;;;;;5053553;28;20390;-75
2021/05/31 05:27:52;;;;;;;19.48;6.85;;;12.50;99.90;;;;;;5053553;28;20033;-74
2021/05/31 05:30:21;;;;;;;17.40;7.07;;;12.70;99.90;;;;;;5053394;28;20032;-75
2021/05/31 05:32:49;;;;;;;19.67;7.63;;;12.80;99.90;;;;;;5036099;28;20032;-78
2021/05/31 05:38:36;;;;;;;18.23;6.75;;;13.00;99.90;;;;;;5095240;22;20046;-72
2021/05/31 05:46:04;;;;;;;13.48;6.43;;;13.30;99.90;;;;;;5046445;28;20183;-74
2021/05/31 05:48:29;;;;;;;13.32;6.40;;;13.50;99.90;;;;;;5053392;28;20025;-73
2021/05/31 05:51:06;;;;;;;12.32;6.43;;;13.50;99.90;;;;;;5053684;28;20386;-73
2021/05/31 05:53:34;;;;;;;13.65;6.43;;;13.60;99.90;;;;;;5035513;28;20025;-77
2021/05/31 05:55:59;;;;;;;15.45;5.80;;;13.70;99.90;;;;;;5035681;28;20354;-76
2021/05/31 05:58:29;;;;;;;13.57;7.18;;;13.80;99.90;;;;;;5053256;28;20213;-74
2021/05/31 06:01:00;;;;;;;16.13;6.40;;;13.90;99.90;;;;;;5053000;28;20029;-72
2021/05/31 06:03:26;;;;;;;14.65;6.18;;;14.00;99.90;;;;;;5041787;28;20026;-77
2021/05/31 06:05:55;;;;;;;12.63;6.32;;;14.10;99.90;;;;;;5053603;28;20033;-76
2021/05/31 06:08:20;;;;;;;10.70;5.30;;;14.20;99.90;;;;;;5053016;28;20032;-74
2021/05/31 06:10:46;;;;;;;11.25;5.47;;;14.30;99.90;;;;;;5034427;28;20021;-75
2021/05/31 06:13:11;;;;;;;12.65;6.78;;;14.40;99.90;;;;;;5055972;28;20021;-75
2021/05/31 06:15:37;;;;;;;16.27;6.63;;;14.50;99.90;;;;;;5056655;28;20021;-76
2021/05/31 06:18:04;;;;;;;10.13;5.32;;;14.60;99.90;;;;;;5057232;28;20029;-77
2021/05/31 06:20:30;;;;;;;12.00;5.32;;;14.70;99.90;;;;;;5056588;28;20432;-77
2021/05/31 06:22:55;;;;;;;12.00;4.93;;;14.80;99.90;;;;;;5056239;28;20017;-76
2021/05/31 06:25:21;;;;;;;13.63;5.10;;;14.90;99.90;;;;;;5038664;28;20074;-78
2021/05/31 06:27:47;;;;;;;10.10;5.07;;;15.00;99.90;;;;;;5039320;28;20485;-77
2021/05/31 06:30:14;;;;;;;7.88;4.43;;;15.20;99.90;;;;;;5055450;28;20049;-77
2021/05/31 06:32:40;;;;;;;12.38;5.43;;;15.30;99.90;;;;;;5039443;28;20029;-77
2021/05/31 06:35:07;;;;;;;11.38;5.32;;;15.40;99.90;;;;;;5056369;28;20033;-77
2021/05/31 06:37:38;;;;;;;10.10;4.57;;;15.50;99.90;;;;;;5038630;28;20485;-77
2021/05/31 06:40:07;;;;;;;8.95;3.90;;;15.60;99.90;;;;;;5040160;28;20116;-75
2021/05/31 06:42:32;;;;;;;8.60;4.57;;;15.80;99.90;;;;;;5039411;28;20102;-74
2021/05/31 06:44:58;;;;;;;11.20;4.70;;;15.90;99.90;;;;;;5042163;28;20051;-79
2021/05/31 06:47:24;;;;;;;9.65;4.53;;;15.90;99.90;;;;;;5041495;28;20021;-79
2021/05/31 06:49:51;;;;;;;8.45;4.25;;;16.20;99.90;;;;;;5042693;28;20222;-79
2021/05/31 06:52:16;;;;;;;13.50;3.80;;;16.30;99.90;;;;;;5060598;28;20028;-79
2021/05/31 06:54:42;;;;;;;6.03;2.95;;;16.40;99.90;;;;;;5042267;28;20021;-78
2021/05/31 06:57:07;;;;;;;7.32;3.90;;;16.50;99.90;;;;;;5060238;28;20037;-79
2021/05/31 06:59:36;;;;;;;7.28;3.33;;;16.70;99.90;;;;;;5043008;28;20035;-79
2021/05/31 07:02:02;;;;;;;7.25;3.50;;;16.70;99.90;;;;;;5041181;28;20060;-78
2021/05/31 07:04:27;;;;;;;5.15;3.25;;;16.90;99.90;;;;;;5041144;28;20017;-79
2021/05/31 07:06:53;;;;;;;6.28;3.47;;;17.00;99.90;;;;;;5039099;28;20021;-76
2021/05/31 07:09:19;;;;;;;6.32;2.72;;;17.20;99.90;;;;;;5055613;28;20028;-76
2021/05/31 07:11:47;;;;;;;7.25;3.15;;;17.40;99.90;;;;;;5055959;28;20028;-76
2021/05/31 07:14:18;;;;;;;11.55;2.78;;;17.60;99.90;;;;;;5055539;28;20017;-76
2021/05/31 07:16:44;;;;;;;7.80;3.33;;;17.80;99.90;;;;;;5056125;28;20032;-73
2021/05/31 07:19:11;;;;;;;8.93;3.47;;;18.00;99.90;;;;;;5055504;28;20074;-72
2021/05/31 07:21:41;;;;;;;12.55;3.78;;;18.10;99.90;;;;;;5037622;28;20029;-76
2021/05/31 07:24:08;;;;;;;8.63;3.25;;;18.20;98.10;;;;;;5055564;28;20559;-72
2021/05/31 07:26:34;;;;;;;8.20;3.63;;;18.30;98.50;;;;;;5055432;28;20108;-72
2021/05/31 07:29:00;;;;;;;7.45;2.67;;;18.40;98.60;;;;;;5037574;28;20033;-72
2021/05/31 07:31:26;;;;;;;12.55;3.80;;;18.40;97.30;;;;;;5055489;28;20474;-72
2021/05/31 07:33:54;;;;;;;9.85;3.88;;;18.60;95.10;;;;;;5055245;28;20025;-73
2021/05/31 07:36:20;;;;;;;5.47;2.67;;;18.60;94.40;;;;;;5037480;28;20033;-76
2021/05/31 07:38:47;;;;;;;8.93;3.00;;;18.70;94.50;;;;;;5055074;28;20108;-76
2021/05/31 07:41:12;;;;;;;9.32;4.40;;;18.80;95.30;;;;;;5055463;28;20116;-72
2021/05/31 07:43:38;;;;;;;6.10;3.13;;;18.90;94.70;;;;;;5037204;28;20111;-75
2021/05/31 07:46:04;;;;;;;6.30;3.38;;;19.00;95.00;;;;;;5055131;28;20049;-72
2021/05/31 07:48:29;;;;;;;9.88;3.20;;;19.20;94.20;;;;;;5037315;28;20017;-73
2021/05/31 07:51:15;;;;;;;6.55;3.05;;;19.40;93.60;;;;;;5037352;28;20025;-72
2021/05/31 07:53:41;;;;;;;5.50;2.90;;;19.50;92.70;;;;;;5037116;28;20036;-72
2021/05/31 07:56:07;;;;;;;5.88;2.10;;;19.70;92.50;;;;;;5054688;28;20036;-72
2021/05/31 07:58:32;;;;;;;7.78;2.58;;;19.80;90.20;;;;;;5036941;28;20017;-72
2021/05/31 08:00:59;;;;;;;8.88;2.40;;;19.90;87.70;;;;;;5054783;28;20092;-72
2021/05/31 08:03:25;;;;;;;6.60;2.00;;;20.00;88.50;;;;;;5054783;28;20421;-73
2021/05/31 08:05:50;;;;;;;8.25;2.80;;;20.10;86.40;;;;;;5037201;28;20017;-72
2021/05/31 08:08:16;;;;;;;4.35;1.83;;;20.20;85.80;;;;;;5054881;28;20056;-76
2021/05/31 08:10:42;;;;;;;4.13;2.08;;;20.30;82.90;;;;;;5054863;28;20056;-77
2021/05/31 08:13:09;;;;;;;7.50;2.22;;;20.30;79.70;;;;;;5037017;28;20033;-77
2021/05/31 08:15:34;;;;;;;3.33;1.40;;;20.40;79.90;;;;;;5055311;28;20044;-72
2021/05/31 08:18:00;;;;;;;4.88;1.88;;;20.50;79.60;;;;;;5054736;28;20057;-77
2021/05/31 08:20:25;;;;;;;5.78;1.98;;;20.60;78.70;;;;;;5054865;28;20017;-77
2021/05/31 08:22:51;;;;;;;4.38;1.77;;;20.80;74.40;;;;;;5054879;28;20021;-76
2021/05/31 08:25:17;;;;;;;4.75;1.92;;;20.70;74.50;;;;;;5054614;28;20033;-76
2021/05/31 08:27:44;;;;;;;10.25;2.35;;;20.80;74.50;;;;;;5054351;28;20031;-75
2021/05/31 08:30:10;;;;;;;4.95;1.80;;;20.90;73.70;;;;;;5054281;28;20083;-76
2021/05/31 08:32:35;;;;;;;5.13;1.08;;;21.00;72.70;;;;;;5054258;28;20119;-73
2021/05/31 08:35:01;;;;;;;3.85;1.70;;;21.10;71.40;;;;;;5054199;28;20112;-76
2021/05/31 08:37:27;;;;;;;4.85;1.63;;;21.20;71.20;;;;;;5054385;28;20383;-71
2021/05/31 08:39:54;;;;;;;2.53;1.08;;;21.40;70.50;;;;;;5054111;28;20037;-76
2021/05/31 08:42:20;;;;;;;3.78;1.10;;;21.40;66.60;;;;;;5054320;28;20025;-76
2021/05/31 08:44:46;;;;;;;3.90;1.08;;;21.40;68.20;;;;;;5057477;22;20047;-72
2021/05/31 08:47:11;;;;;;;2.72;1.25;;;21.50;67.60;;;;;;5052925;28;20120;-72
2021/05/31 08:49:37;;;;;;;1.65;0.60;;;21.60;67.10;;;;;;5054318;28;20389;-72
2021/05/31 08:52:05;;;;;;;1.90;0.60;;;21.80;68.10;;;;;;5054090;28;20025;-72
2021/05/31 08:54:31;;;;;;;2.92;0.65;;;21.90;65.80;;;;;;5053969;28;20024;-72
2021/05/31 08:56:56;;;;;;;2.03;0.60;;;22.00;63.80;;;;;;5035884;28;20040;-73
2021/05/31 08:59:22;;;;;;;3.60;0.88;;;22.00;65.30;;;;;;5053766;28;20032;-75
2021/05/31 09:01:47;;;;;;;3.42;0.95;;;22.10;64.00;;;;;;5054433;28;20044;-75
2021/05/31 09:04:15;;;;;;;3.95;1.10;;;22.20;63.20;;;;;;5035903;28;20030;-76
2021/05/31 09:06:52;;;;;;;5.15;0.88;;;22.30;63.10;;;;;;5035665;28;20040;-76
2021/05/31 09:09:17;;;;;;;1.33;0.40;;;22.20;59.50;;;;;;5035837;28;20489;-73
2021/05/31 09:11:56;;;;;;;4.60;1.02;;;22.30;60.00;;;;;;5036219;28;20017;-72
2021/05/31 09:14:22;;;;;;;1.75;0.45;;;22.30;58.90;;;;;;5036155;28;20132;-75
2021/05/31 09:16:48;;;;;;;2.35;0.90;;;22.40;58.70;;;;;;5036222;28;20068;-75
2021/05/31 09:19:14;;;;;;;1.88;0.63;;;22.50;57.00;;;;;;5054270;28;20049;-76
2021/05/31 09:21:42;;;;;;;3.13;0.77;;;22.60;57.20;;;;;;5054122;28;20013;-72
2021/05/31 09:24:14;;;;;;;3.38;0.57;;;22.60;57.90;;;;;;5053524;28;20022;-73
2021/05/31 09:26:50;;;;;;;1.30;0.20;;;22.60;55.20;;;;;;5036069;28;20021;-73
2021/05/31 09:29:16;;;;;;;3.00;0.40;;;22.60;55.20;;;;;;5053682;28;20031;-75
2021/05/31 09:31:42;;;;;;;0.75;0.20;;;22.60;55.30;;;;;;5036444;28;20033;-75
2021/05/31 09:34:11;;;;;;;0.93;0.35;;;22.70;53.90;;;;;;5054424;28;20033;-76
2021/05/31 09:36:50;;;;;;;;;;;22.80;55.00;;;;;;5054398;28;20085;-76
2021/05/31 09:39:16;;;;;;;5.03;0.50;;;22.70;54.30;;;;;;5053663;28;19905;-75
2021/05/31 09:41:42;;;;;;;2.20;0.22;;;22.90;50.00;;;;;;5054278;28;20029;-75
2021/05/31 09:44:09;;;;;;;1.58;0.63;;;23.00;49.50;;;;;;5035458;28;20082;-75
2021/05/31 09:46:40;;;;;;;3.40;0.60;;;23.30;49.20;;;;;;5053776;28;20532;-76
2021/05/31 09:49:16;;;;;;;0.90;0.30;;;23.30;51.50;;;;;;5039498;28;20025;-75
2021/05/31 09:51:54;;;;;;;0.98;0.43;;;23.30;51.10;;;;;;5039586;28;20036;-76
2021/05/31 09:54:39;;;;;;;2.20;0.57;;;23.50;51.40;;;;;;5039605;28;20025;-76
2021/05/31 09:57:23;;;;;;;1.40;0.52;;;23.60;50.30;;;;;;5057236;28;20024;-76
2021/05/31 09:59:52;;;;;;;2.72;0.43;;;23.60;47.20;;;;;;5057637;28;20021;-76
2021/05/31 10:02:23;;;;;;;1.05;0.30;;;23.70;49.10;;;;;;5057329;28;20501;-76
2021/05/31 10:10:38;;;;;;;2.63;0.20;;;23.80;53.20;;;;;;5033518;28;20119;-71
2021/05/31 10:13:05;;;;;;;3.97;0.52;;;23.90;50.30;;;;;;5039123;28;20112;-73
2021/05/31 10:15:35;;;;;;;1.58;0.28;;;23.90;50.50;;;;;;5038760;28;20021;-75
2021/05/31 10:18:03;;;;;;;2.88;0.30;;;23.90;50.00;;;;;;5039029;28;20035;-75
2021/05/31 10:20:29;;;;;;;4.30;0.53;;;24.00;50.70;;;;;;5070636;22;20052;-71
2021/05/31 10:22:57;;;;;;;1.80;0.17;;;25.20;51.30;;;;;;5038606;28;20303;-76
2021/05/31 10:25:25;;;;;;;2.63;0.68;;;24.30;50.00;;;;;;5056464;28;20027;-75
2021/05/31 10:27:55;;;;;;;0.68;0.10;;;24.40;49.90;;;;;;5056747;28;20021;-73
2021/05/31 10:30:21;;;;;;;3.13;0.57;;;24.40;49.00;;;;;;5056603;28;20036;-76
2021/05/31 10:32:48;;;;;;;5.35;0.80;;;24.60;48.70;;;;;;5038423;28;20454;-75
2021/05/31 10:35:20;;;;;;;1.35;0.25;;;24.80;48.20;;;;;;5053084;22;20132;-74
2021/05/31 10:37:57;;;;;;;2.75;0.30;;;25.00;47.40;;;;;;5038471;28;20037;-75
2021/05/31 10:40:36;;;;;;;2.17;0.20;;;24.90;48.90;;;;;;5056043;28;20017;-75
2021/05/31 10:43:09;;;;;;;;;;;25.00;48.50;;;;;;5056688;28;20387;-73
2021/05/31 10:45:36;;;;;;;2.70;0.47;;;25.10;48.90;;;;;;5056071;28;19911;-72
2021/05/31 10:48:09;;;;;;;2.22;0.85;;;25.10;49.50;;;;;;5056424;28;20385;-75
2021/05/31 10:50:40;;;;;;;2.88;0.73;;;25.20;48.60;;;;;;5037981;28;20100;-75
2021/05/31 10:53:19;;;;;;;2.35;0.90;;;25.20;48.80;;;;;;5037952;28;20439;-72
2021/05/31 10:55:57;;;;;;;1.38;0.40;;;25.30;48.10;;;;;;5055999;28;20021;-72
2021/05/31 10:58:31;;;;;;;2.58;0.73;;;25.30;48.90;;;;;;5055539;28;20112;-73
2021/05/31 11:01:04;;;;;;;3.08;1.20;;;25.40;49.00;;;;;;5056161;28;20474;-76
2021/05/31 11:03:31;;;;;;;4.15;1.10;;;25.50;49.70;;;;;;5056917;28;20023;-76
2021/05/31 11:05:57;;;;;;;5.70;0.98;;;25.50;50.60;;;;;;5055793;28;20060;-76
2021/05/31 11:08:25;;;;;;;3.83;1.52;;;25.50;50.70;;;;;;5055692;28;20021;-75
2021/05/31 11:10:55;;;;;;;3.05;1.70;;;25.60;51.20;;;;;;5055726;28;20071;-73
2021/05/31 11:13:21;;;;;;;1.75;1.08;;;25.90;50.80;;;;;;5056212;28;20374;-72
2021/05/31 11:16:04;;;;;;;2.60;1.30;;;26.00;51.20;;;;;;5037512;28;20017;-75
2021/05/31 11:18:39;;;;;;;4.50;1.45;;;26.00;51.00;;;;;;5037513;28;20017;-72
2021/05/31 11:21:04;;;;;;;2.67;1.27;;;26.20;51.30;;;;;;5055598;28;20025;-72
2021/05/31 11:23:30;;;;;;;5.93;1.00;;;26.30;50.40;;;;;;5037528;28;20028;-76
2021/05/31 11:25:57;;;;;;;2.90;1.27;;;26.50;48.70;;;;;;5055217;28;20024;-72
2021/05/31 11:28:24;;;;;;;3.35;1.55;;;26.70;49.70;;;;;;5037773;28;20013;-72
2021/05/31 11:30:50;;;;;;;4.53;1.42;;;26.80;48.30;;;;;;5055581;28;20381;-74
2021/05/31 11:33:17;;;;;;;3.22;1.20;;;26.90;48.60;;;;;;5055852;28;20017;-75
2021/05/31 11:35:47;;;;;;;2.30;0.75;;;27.00;46.90;;;;;;5037754;28;20064;-75
2021/05/31 11:38:19;;;;;;;4.30;1.17;;;27.10;47.50;;;;;;5056654;28;20029;-75
2021/05/31 11:40:46;;;;;;;5.18;1.17;;;27.30;48.30;;;;;;5039007;28;20032;-75
2021/05/31 11:43:15;;;;;;;1.35;0.75;;;27.30;47.50;;;;;;5055709;28;20021;-74
2021/05/31 11:45:44;;;;;;;4.50;1.13;;;27.40;47.00;;;;;;5038591;28;20033;-74
2021/05/31 11:48:13;;;;;;;2.50;0.73;;;27.50;46.70;;;;;;5056679;28;20052;-75
2021/05/31 11:50:42;;;;;;;1.92;0.60;;;27.60;46.10;;;;;;5055755;28;20066;-75
2021/05/31 11:53:10;;;;;;;1.77;0.43;;;27.60;46.80;;;;;;5055812;28;20541;-75
2021/05/31 11:55:37;;;;;;;4.40;0.60;;;27.60;47.70;;;;;;5054848;28;20040;-75
2021/05/31 11:58:03;;;;;;;1.17;0.22;;;27.70;45.80;;;;;;5054628;28;20025;-73
2021/05/31 12:00:31;;;;;;;1.95;0.65;;;27.90;45.30;;;;;;5054731;28;20021;-76
2021/05/31 12:02:57;;;;;;;;;;;27.80;44.50;;;;;;5055020;28;20017;-76
2021/05/31 12:05:31;;;;;;;4.05;0.60;;;28.10;45.10;;;;;;5054567;28;19905;-77
2021/05/31 12:08:06;;;;;;;2.72;0.55;;;28.10;44.40;;;;;;5036776;28;20028;-74
2021/05/31 12:10:33;;;;;;;4.55;0.98;;;28.00;44.90;;;;;;5054088;28;20075;-73
2021/05/31 12:12:59;;;;;;;2.67;0.63;;;28.00;43.70;;;;;;5036376;28;20025;-76
2021/05/31 12:15:24;;;;;;;2.17;0.60;;;27.90;44.00;;;;;;5036285;28;20501;-73
2021/05/31 12:17:52;;;;;;;1.63;0.38;;;27.90;44.40;;;;;;5054034;28;20060;-72
2021/05/31 12:20:24;;;;;;;2.73;1.00;;;28.00;45.50;;;;;;5036344;28;20104;-72
2021/05/31 12:22:50;;;;;;;1.23;0.47;;;28.30;43.80;;;;;;5054251;28;20021;-72
2021/05/31 12:25:16;;;;;;;3.60;0.43;;;28.50;45.30;;;;;;5036205;28;20017;-72
2021/05/31 12:27:42;;;;;;;1.60;0.50;;;28.70;42.80;;;;;;5054436;28;20037;-75
2021/05/31 12:30:12;;;;;;;2.40;0.30;;;28.90;43.70;;;;;;5036603;28;20033;-76
2021/05/31 12:32:38;;;;;;;1.50;1.10;;;29.00;42.10;;;;;;5036345;28;20516;-76
2021/05/31 12:35:05;;;;;;;2.13;0.25;;;29.20;42.00;;;;;;5036413;28;20032;-76
2021/05/31 12:37:33;;;;;;;3.17;0.52;;;29.40;42.00;;;;;;5054592;28;20049;-76
2021/05/31 12:40:05;;;;;;;3.72;0.65;;;29.60;43.40;;;;;;5054547;28;20454;-75
2021/05/31 12:42:31;;;;;;;7.65;0.80;;;29.60;41.20;;;;;;5054392;28;20032;-72
2021/05/31 12:45:08;;;;;;;2.58;0.45;;;29.50;42.20;;;;;;5054754;28;20018;-74
2021/05/31 12:47:53;;;;;;;2.67;0.40;;;29.60;43.70;;;;;;5054451;28;20047;-77
2021/05/31 12:50:29;;;;;;;1.27;0.30;;;29.20;41.20;;;;;;5037732;28;20051;-73
2021/05/31 12:52:55;;;;;;;1.70;0.60;;;29.30;41.60;;;;;;5054674;28;20108;-74
2021/05/31 12:55:27;;;;;;;0.45;0.20;;;29.40;41.00;;;;;;5036397;28;20053;-73
2021/05/31 12:57:54;;;;;;;2.55;0.20;;;29.50;41.00;;;;;;5053834;28;20111;-73
2021/05/31 13:00:22;;;;;;;1.88;0.40;;;29.60;40.60;;;;;;5036126;28;20021;-73
2021/05/31 13:03:01;;;;;;;0.75;0.25;;;29.80;40.80;;;;;;5053836;28;20378;-72
2021/05/31 13:05:31;;;;;;;2.38;0.30;;;30.00;40.90;;;;;;5053794;28;20371;-75
2021/05/31 13:07:59;;;;;;;0.60;0.40;;;30.30;40.80;;;;;;5053556;28;20029;-75